Algoa, Arkansas
Current Conditions -  °F | °C
As of 7:56 PM on Thursday 18 Dec 2014 (Local Time) from KM19 Reporting Station
Overcast Overcast  
Wind Chill: 39°   Ceiling: 1600
Heat Index: 42°   Visibility: 7mi
Dew Point: 39°   Wind: 5mph
Humidity: 89%   Direction: 50°NE
Pressure: 30.25"   Gusts: NA
Location:  35.5678°N, 91.2073°W
Report Text: KM19 190156Z AUTO 05004KT 7SM OVC016 06/04 A3025 RMK AO2 T00550038 RAE43 P0000 SLP244
Loading
Personal Weather Stations






























Interactive Weather Map New forecast layout! Learn more

10-Day Weather Forecast

Advertisements
Track Severe Weather on mobile